Terminal Aerodrome Forecast
Issued by NWS Detroit/Pontiac, MI

Home | Current Version | Previous Version | Text Only | Print | Product List | Glossary On
Versions: 1 2 3 4 5 6 7 8 9 10 11 12 13
000
FTUS43 KDTX 031729
TAFFNT
TAF
KFNT 031729Z 0318/0418 23013G22KT P6SM BKN100
     FM040100 20007KT P6SM FEW080 SCT250
     FM040800 21010KT P6SM BKN070 OVC100
     FM041100 23012KT P6SM BKN050 OVC100
     FM041500 23012G20KT 5SM -SHRA BKN050 OVC100=

USA.gov is the U.S. government's official web portal to all federal, state and local government web resources and services.